Terminal Aerodrome Forecast
Issued by NWS Corpus Christi, TX

Home | Current Version | Previous Version | Text Only | Print | Product List | Glossary On
Versions: 1 2 3 4 5 6 7 8 9 10 11 12 13 14 15 16 17 18 19 20 21 22
310
FTUS44 KCRP 220825 AAD
TAFCRP
TAF AMD
KCRP 220825Z 2208/2306 20005KT 1SM BR SCT015
     FM220900 30010KT P6SM VCSH SCT012
      TEMPO 2209/2212 -SHRA BKN012
     FM221200 02017G23KT P6SM SCT015
     FM221900 03007KT P6SM SCT150=

USA.gov is the U.S. government's official web portal to all federal, state and local government web resources and services.